SWA3413 KMDW-KMKE
Flight info
| Callsign | SWA3413 |
|---|---|
| Flight time | 0h 23m |
| Altitude | 7000 |
| Route | RAYNR BRTMN TAAYZ |
| Aircraft | B737/M-SDE2E3FGHIRWXY/LB1 |
Departure
| Time | 2026-04-15 03:43 |
|---|---|
| Airport | Chicago Midway International Airport (KMDW) |
Arrival
| Time | 2026-04-15 04:07 |
|---|---|
| Airport | General Mitchell International Airport (KMKE) |
| Time | Latitude | Longitude | Altitude | Speed | Heading |
|---|---|---|---|---|---|
| 2026-04-15 03:33 | 41.78865 | -87.74399 | 628 ft | 0 kts | 141° |
| 2026-04-15 03:38 | 41.78867 | -87.74400 | 628 ft | 1 kts | 141° |
| 2026-04-15 03:38 | 41.78880 | -87.74414 | 636 ft | 3 kts | 142° |
| 2026-04-15 03:39 | 41.78893 | -87.74429 | 633 ft | 3 kts | 111° |
| 2026-04-15 03:39 | 41.78894 | -87.74447 | 628 ft | 3 kts | 49° |
| 2026-04-15 03:39 | 41.78887 | -87.74457 | 631 ft | 2 kts | 43° |
| 2026-04-15 03:39 | 41.78879 | -87.74467 | 630 ft | 0 kts | 43° |
| 2026-04-15 03:41 | 41.78915 | -87.74442 | 642 ft | 14 kts | 26° |
| 2026-04-15 03:41 | 41.79033 | -87.74349 | 630 ft | 23 kts | 37° |
| 2026-04-15 03:42 | 41.79102 | -87.74274 | 636 ft | 8 kts | 34° |
| 2026-04-15 03:42 | 41.79171 | -87.74282 | 633 ft | 13 kts | 319° |
| 2026-04-15 03:42 | 41.79170 | -87.74342 | 630 ft | 3 kts | 222° |
| 2026-04-15 03:43 | 41.79012 | -87.74544 | 633 ft | 70 kts | 223° |
| 2026-04-15 03:43 | 41.78479 | -87.75225 | 637 ft | 137 kts | 226° |
| 2026-04-15 03:43 | 41.77726 | -87.76195 | 1121 ft | 153 kts | 224° |
| 2026-04-15 03:43 | 41.76993 | -87.77191 | 2007 ft | 148 kts | 228° |
| 2026-04-15 03:44 | 41.76263 | -87.78298 | 2488 ft | 173 kts | 244° |
| 2026-04-15 03:44 | 41.76073 | -87.80004 | 2800 ft | 205 kts | 273° |
| 2026-04-15 03:44 | 41.76629 | -87.81932 | 3141 ft | 242 kts | 306° |
| 2026-04-15 03:44 | 41.78076 | -87.83213 | 3984 ft | 264 kts | 336° |
| 2026-04-15 03:45 | 41.79949 | -87.83473 | 5010 ft | 274 kts | 352° |
| 2026-04-15 03:45 | 41.81883 | -87.83421 | 5963 ft | 281 kts | 354° |
| 2026-04-15 03:45 | 41.83846 | -87.83329 | 6659 ft | 283 kts | 354° |
| 2026-04-15 03:45 | 41.85784 | -87.83239 | 6978 ft | 280 kts | 354° |
| 2026-04-15 03:46 | 41.87732 | -87.83168 | 7038 ft | 285 kts | 353° |
| 2026-04-15 03:46 | 41.89756 | -87.83115 | 7057 ft | 289 kts | 353° |
| 2026-04-15 03:46 | 41.91766 | -87.83071 | 7058 ft | 287 kts | 353° |
| 2026-04-15 03:46 | 41.93763 | -87.83035 | 7063 ft | 287 kts | 353° |
| 2026-04-15 03:47 | 41.95748 | -87.83009 | 7067 ft | 286 kts | 352° |
| 2026-04-15 03:47 | 41.97740 | -87.82982 | 7067 ft | 285 kts | 353° |
| 2026-04-15 03:47 | 41.99717 | -87.82952 | 7076 ft | 284 kts | 352° |
| 2026-04-15 03:47 | 42.01704 | -87.82926 | 7065 ft | 285 kts | 352° |
| 2026-04-15 03:48 | 42.03659 | -87.82902 | 7062 ft | 285 kts | 352° |
| 2026-04-15 03:48 | 42.05638 | -87.82880 | 7084 ft | 284 kts | 352° |
| 2026-04-15 03:48 | 42.07616 | -87.82856 | 7092 ft | 284 kts | 352° |
| 2026-04-15 03:48 | 42.09591 | -87.82834 | 7083 ft | 284 kts | 352° |
| 2026-04-15 03:49 | 42.11570 | -87.82813 | 7090 ft | 284 kts | 352° |
| 2026-04-15 03:49 | 42.13537 | -87.82792 | 7091 ft | 283 kts | 352° |
| 2026-04-15 03:49 | 42.15505 | -87.82770 | 7084 ft | 282 kts | 352° |
| 2026-04-15 03:49 | 42.17470 | -87.82749 | 7079 ft | 283 kts | 352° |
| 2026-04-15 03:50 | 42.19436 | -87.82728 | 7006 ft | 282 kts | 353° |
| 2026-04-15 03:50 | 42.21397 | -87.82710 | 7004 ft | 282 kts | 352° |
| 2026-04-15 03:50 | 42.23357 | -87.82686 | 7005 ft | 281 kts | 352° |
| 2026-04-15 03:50 | 42.25314 | -87.82664 | 7005 ft | 281 kts | 352° |
| 2026-04-15 03:51 | 42.27262 | -87.82637 | 7014 ft | 280 kts | 352° |
| 2026-04-15 03:51 | 42.29214 | -87.82617 | 7010 ft | 280 kts | 352° |
| 2026-04-15 03:51 | 42.31160 | -87.82590 | 7014 ft | 280 kts | 354° |
| 2026-04-15 03:51 | 42.33117 | -87.82409 | 7026 ft | 283 kts | 357° |
| 2026-04-15 03:52 | 42.35077 | -87.82143 | 7036 ft | 283 kts | 358° |
| 2026-04-15 03:52 | 42.37039 | -87.81867 | 7037 ft | 284 kts | 358° |
| 2026-04-15 03:52 | 42.39010 | -87.81593 | 7044 ft | 285 kts | 358° |
| 2026-04-15 03:52 | 42.40985 | -87.81319 | 7039 ft | 286 kts | 358° |
| 2026-04-15 03:53 | 42.42964 | -87.81046 | 7032 ft | 287 kts | 358° |
| 2026-04-15 03:53 | 42.44949 | -87.80774 | 7018 ft | 287 kts | 358° |
| 2026-04-15 03:53 | 42.46939 | -87.80502 | 7033 ft | 287 kts | 358° |
| 2026-04-15 03:53 | 42.48926 | -87.80231 | 7021 ft | 287 kts | 358° |
| 2026-04-15 03:54 | 42.50914 | -87.79960 | 7018 ft | 287 kts | 358° |
| 2026-04-15 03:54 | 42.52904 | -87.79687 | 6986 ft | 287 kts | 358° |
| 2026-04-15 03:54 | 42.54866 | -87.79418 | 6975 ft | 287 kts | 358° |
| 2026-04-15 03:55 | 42.58198 | -87.78953 | 6989 ft | 287 kts | 358° |
| 2026-04-15 03:55 | 42.60830 | -87.78593 | 6990 ft | 287 kts | 358° |
| 2026-04-15 03:55 | 42.62818 | -87.78340 | 6982 ft | 286 kts | 358° |
| 2026-04-15 03:55 | 42.64796 | -87.78094 | 7013 ft | 285 kts | 358° |
| 2026-04-15 03:56 | 42.66764 | -87.77852 | 7020 ft | 284 kts | 358° |
| 2026-04-15 03:56 | 42.68726 | -87.77613 | 7018 ft | 283 kts | 358° |
| 2026-04-15 03:56 | 42.70687 | -87.77350 | 7016 ft | 283 kts | 360° |
| 2026-04-15 03:56 | 42.71981 | -87.77123 | 7022 ft | 283 kts | 0° |
| 2026-04-15 03:57 | 42.73936 | -87.76762 | 7021 ft | 283 kts | 0° |
| 2026-04-15 03:57 | 42.75888 | -87.76393 | 7023 ft | 283 kts | 1° |
| 2026-04-15 03:57 | 42.77839 | -87.76023 | 7013 ft | 283 kts | 1° |
| 2026-04-15 03:57 | 42.79790 | -87.75650 | 7027 ft | 283 kts | 1° |
| 2026-04-15 03:58 | 42.81742 | -87.75271 | 7019 ft | 283 kts | 1° |
| 2026-04-15 03:58 | 42.83693 | -87.74897 | 7019 ft | 283 kts | 1° |
| 2026-04-15 03:58 | 42.85646 | -87.74522 | 7017 ft | 284 kts | 1° |
| 2026-04-15 03:58 | 42.87600 | -87.74145 | 6969 ft | 282 kts | 1° |
| 2026-04-15 03:59 | 42.89526 | -87.73770 | 6664 ft | 279 kts | 1° |
| 2026-04-15 03:59 | 42.91466 | -87.73392 | 6198 ft | 282 kts | 1° |
| 2026-04-15 03:59 | 42.93413 | -87.73015 | 5775 ft | 283 kts | 1° |
| 2026-04-15 03:59 | 42.95358 | -87.72641 | 5357 ft | 282 kts | 1° |
| 2026-04-15 04:00 | 42.97301 | -87.72267 | 4997 ft | 280 kts | 1° |
| 2026-04-15 04:00 | 42.99224 | -87.71894 | 4607 ft | 279 kts | 1° |
| 2026-04-15 04:00 | 43.01145 | -87.71543 | 4259 ft | 277 kts | 1° |
| 2026-04-15 04:00 | 43.03054 | -87.71234 | 3847 ft | 277 kts | 1° |
| 2026-04-15 04:01 | 43.04972 | -87.70950 | 3472 ft | 276 kts | 1° |
| 2026-04-15 04:01 | 43.06870 | -87.70887 | 3074 ft | 269 kts | 341° |
| 2026-04-15 04:01 | 43.08385 | -87.72073 | 3002 ft | 240 kts | 304° |
| 2026-04-15 04:01 | 43.09045 | -87.73996 | 3005 ft | 216 kts | 281° |
| 2026-04-15 04:02 | 43.09425 | -87.75905 | 2986 ft | 207 kts | 281° |
| 2026-04-15 04:02 | 43.09804 | -87.77785 | 2986 ft | 204 kts | 281° |
| 2026-04-15 04:02 | 43.10180 | -87.79651 | 2999 ft | 203 kts | 281° |
| 2026-04-15 04:02 | 43.10540 | -87.81512 | 3004 ft | 201 kts | 278° |
| 2026-04-15 04:03 | 43.10763 | -87.83376 | 2987 ft | 195 kts | 265° |
| 2026-04-15 04:03 | 43.10223 | -87.85002 | 2996 ft | 193 kts | 224° |
| 2026-04-15 04:03 | 43.09135 | -87.86005 | 2994 ft | 182 kts | 216° |
| 2026-04-15 04:03 | 43.08095 | -87.86899 | 2966 ft | 173 kts | 212° |
| 2026-04-15 04:04 | 43.06925 | -87.87329 | 2879 ft | 176 kts | 193° |
| 2026-04-15 04:04 | 43.05727 | -87.87576 | 2708 ft | 174 kts | 193° |
| 2026-04-15 04:04 | 43.04512 | -87.87803 | 2506 ft | 176 kts | 192° |
| 2026-04-15 04:04 | 43.03359 | -87.88008 | 2301 ft | 163 kts | 191° |
| 2026-04-15 04:05 | 43.02290 | -87.88182 | 2015 ft | 144 kts | 191° |
| 2026-04-15 04:05 | 43.01365 | -87.88338 | 1827 ft | 125 kts | 191° |
| 2026-04-15 04:05 | 43.00532 | -87.88481 | 1671 ft | 117 kts | 192° |
| 2026-04-15 04:05 | 42.99722 | -87.88618 | 1469 ft | 117 kts | 194° |
| 2026-04-15 04:06 | 42.98922 | -87.88854 | 1390 ft | 131 kts | 190° |
| 2026-04-15 04:06 | 42.97949 | -87.88884 | 1172 ft | 144 kts | 188° |
| 2026-04-15 04:06 | 42.96950 | -87.89070 | 1022 ft | 148 kts | 191° |
| 2026-04-15 04:06 | 42.95920 | -87.89278 | 781 ft | 147 kts | 187° |
| 2026-04-15 04:07 | 42.94981 | -87.89435 | 683 ft | 120 kts | 187° |
| 2026-04-15 04:07 | 42.94298 | -87.89551 | 685 ft | 78 kts | 187° |
| 2026-04-15 04:07 | 42.94027 | -87.89657 | 682 ft | 19 kts | 266° |
| 2026-04-15 04:07 | 42.94043 | -87.89832 | 681 ft | 19 kts | 304° |
| 2026-04-15 04:08 | 42.94157 | -87.89889 | 681 ft | 18 kts | 348° |
| 2026-04-15 04:08 | 42.94278 | -87.89918 | 684 ft | 17 kts | 349° |
| 2026-04-15 04:08 | 42.94395 | -87.89949 | 685 ft | 17 kts | 349° |
| 2026-04-15 04:08 | 42.94506 | -87.89961 | 687 ft | 16 kts | 27° |
| 2026-04-15 04:09 | 42.94568 | -87.89838 | 685 ft | 16 kts | 59° |
| 2026-04-15 04:09 | 42.94646 | -87.89743 | 684 ft | 15 kts | 12° |
| 2026-04-15 04:09 | 42.94750 | -87.89730 | 684 ft | 15 kts | 6° |
| 2026-04-15 04:09 | 42.94849 | -87.89710 | 683 ft | 14 kts | 10° |
| 2026-04-15 04:10 | 42.94941 | -87.89718 | 686 ft | 13 kts | 327° |
| 2026-04-15 04:10 | 42.95001 | -87.89811 | 685 ft | 13 kts | 318° |
| 2026-04-15 04:10 | 42.95074 | -87.89880 | 684 ft | 13 kts | 323° |
| 2026-04-15 04:10 | 42.95132 | -87.89967 | 686 ft | 12 kts | 309° |
| 2026-04-15 04:11 | 42.95157 | -87.90048 | 687 ft | 6 kts | 242° |
| 2026-04-15 04:11 | 42.95138 | -87.90064 | 681 ft | 3 kts | 195° |
| 2026-04-15 04:11 | 42.95124 | -87.90068 | 684 ft | 0 kts | 195° |